createdAt,value
2023-03-29T00:02:08.221Z,-4.16
2023-03-29T00:05:23.681Z,-4.15
2023-03-29T00:08:29.657Z,-4.16
2023-03-29T00:11:36.645Z,-4.14
2023-03-29T00:14:42.461Z,-4.06
2023-03-29T00:17:49.314Z,-4.08
2023-03-29T00:21:02.979Z,-4.12
2023-03-29T00:24:10.398Z,-4.20
2023-03-29T00:27:16.929Z,-4.35
2023-03-29T00:30:23.876Z,-4.39
2023-03-29T00:33:29.545Z,-4.55
2023-03-29T00:36:40.778Z,-4.62
2023-03-29T00:39:47.434Z,-4.73
2023-03-29T00:42:56.112Z,-4.83
2023-03-29T00:46:01.855Z,-4.81
2023-03-29T00:49:15.925Z,-4.82
2023-03-29T00:52:30.614Z,-4.80
2023-03-29T00:55:46.398Z,-4.83
2023-03-29T00:59:03.993Z,-4.85
2023-03-29T01:02:14.423Z,-4.79
2023-03-29T01:05:31.257Z,-4.78
2023-03-29T01:08:50.751Z,-4.85
2023-03-29T01:12:04.480Z,-4.88
2023-03-29T01:15:16.636Z,-4.93
2023-03-29T01:18:24.357Z,-4.89
2023-03-29T01:21:40.110Z,-4.81
2023-03-29T01:25:15.462Z,-4.74
2023-03-29T01:28:37.121Z,-4.69
2023-03-29T01:31:53.584Z,-4.64
2023-03-29T01:35:10.533Z,-4.65
2023-03-29T01:38:28.148Z,-4.72
2023-03-29T01:41:50.828Z,-4.68
2023-03-29T01:45:18.161Z,-4.61
2023-03-29T01:48:34.802Z,-4.55
2023-03-29T01:51:52.448Z,-4.52
2023-03-29T01:55:08.972Z,-4.49
2023-03-29T01:58:18.864Z,-4.48
2023-03-29T02:01:38.646Z,-4.46
2023-03-29T02:04:52.744Z,-4.87
2023-03-29T02:08:04.002Z,-4.44
2023-03-29T02:11:11.123Z,-4.45
2023-03-29T02:14:17.889Z,-4.51
2023-03-29T02:17:29.692Z,-4.58
2023-03-29T02:20:42.270Z,-4.59
2023-03-29T02:23:51.055Z,-4.66
2023-03-29T02:26:57.844Z,-4.67
2023-03-29T02:30:03.965Z,-4.70
2023-03-29T02:33:24.232Z,-4.76
2023-03-29T02:36:41.175Z,-4.82
2023-03-29T02:39:53.364Z,-4.82
2023-03-29T02:43:05.432Z,-4.81
2023-03-29T02:46:15.844Z,-4.80
2023-03-29T02:49:25.638Z,-4.73
2023-03-29T02:52:42.197Z,-4.74
2023-03-29T02:55:48.273Z,-4.80
2023-03-29T02:58:54.853Z,-4.81
2023-03-29T03:02:01.079Z,-4.76
2023-03-29T03:05:12.387Z,-4.76
2023-03-29T03:08:19.126Z,-4.74
2023-03-29T03:11:27.401Z,-4.75
2023-03-29T03:14:33.131Z,-4.83
2023-03-29T03:17:41.530Z,-5.28
2023-03-29T03:20:59.593Z,-4.96
2023-03-29T03:24:07.901Z,-5.02
2023-03-29T03:27:13.991Z,-5.07
2023-03-29T03:30:21.465Z,-5.10
2023-03-29T03:33:30.759Z,-5.11
2023-03-29T03:36:49.136Z,-5.27
2023-03-29T03:39:55.135Z,-5.08
2023-03-29T03:43:02.858Z,-5.15
2023-03-29T03:46:09.648Z,-5.26
2023-03-29T03:49:16.894Z,-5.20
2023-03-29T03:52:26.627Z,-5.13
2023-03-29T03:55:33.430Z,-5.17
2023-03-29T03:58:52.310Z,-5.04
2023-03-29T04:02:00.194Z,-4.97
2023-03-29T04:05:06.091Z,-4.90
2023-03-29T04:08:19.474Z,-4.88
2023-03-29T04:11:48.487Z,-4.95
2023-03-29T04:14:55.770Z,-5.09
2023-03-29T04:18:04.464Z,-5.09
2023-03-29T04:21:15.043Z,-5.08
2023-03-29T04:24:27.389Z,-5.09
2023-03-29T04:27:56.479Z,-5.05
2023-03-29T04:31:18.698Z,-4.99
2023-03-29T04:34:32.620Z,-4.96
2023-03-29T04:37:40.572Z,-4.94
2023-03-29T04:40:51.828Z,-4.88
2023-03-29T04:44:28.972Z,-4.79
2023-03-29T04:47:40.201Z,-4.68
2023-03-29T04:50:54.796Z,-4.59
2023-03-29T04:54:01.856Z,-4.51
2023-03-29T04:57:12.218Z,-4.47
2023-03-29T05:00:27.838Z,-4.60
2023-03-29T05:03:52.806Z,-4.44
2023-03-29T05:07:07.244Z,-4.29
2023-03-29T05:10:15.328Z,-4.21
2023-03-29T05:13:25.085Z,-4.10
2023-03-29T05:16:30.789Z,-3.97
2023-03-29T05:19:38.824Z,-3.91
2023-03-29T05:22:46.244Z,-3.88
2023-03-29T05:26:05.435Z,-3.78
2023-03-29T05:29:14.306Z,-3.64
2023-03-29T05:32:24.281Z,-3.57
2023-03-29T05:35:30.049Z,-3.55
2023-03-29T05:38:39.249Z,-3.40
2023-03-29T05:41:44.969Z,-3.38
2023-03-29T05:45:11.883Z,-3.30
2023-03-29T05:48:18.924Z,-3.19
2023-03-29T05:51:26.239Z,-3.22
2023-03-29T05:54:34.317Z,-3.13
2023-03-29T05:57:42.286Z,-3.01
2023-03-29T06:00:52.873Z,-2.97
2023-03-29T06:04:25.670Z,-2.91
2023-03-29T06:07:52.293Z,-2.85
2023-03-29T06:11:04.758Z,-2.78
2023-03-29T06:14:37.682Z,-2.76
2023-03-29T06:18:02.706Z,-2.73
2023-03-29T06:21:11.143Z,-2.73
2023-03-29T06:24:18.306Z,-2.69
2023-03-29T06:27:29.824Z,-2.68
2023-03-29T06:30:36.846Z,-3.64
2023-03-29T06:33:47.128Z,-2.70
2023-03-29T06:37:04.055Z,-2.78
2023-03-29T06:40:13.485Z,-2.73
2023-03-29T06:43:24.288Z,-2.68
2023-03-29T06:46:37.819Z,-2.61
2023-03-29T06:49:50.843Z,-2.54
2023-03-29T06:53:43.332Z,-2.36
2023-03-29T06:56:50.956Z,-2.19
2023-03-29T06:59:59.112Z,-2.06
2023-03-29T07:03:35.698Z,-1.82
2023-03-29T07:06:48.724Z,-1.68
2023-03-29T07:09:57.092Z,-1.60
2023-03-29T07:13:19.201Z,-1.41
2023-03-29T07:16:28.804Z,-1.26
2023-03-29T07:19:57.378Z,-1.22
2023-03-29T07:23:31.276Z,-1.15
2023-03-29T07:26:37.233Z,-1.00
2023-03-29T07:29:45.236Z,-0.98
2023-03-29T07:32:51.464Z,-0.83
2023-03-29T07:36:07.611Z,-0.95
2023-03-29T07:39:17.254Z,-0.93
2023-03-29T07:42:36.923Z,-0.83
2023-03-29T07:45:45.030Z,-0.84
2023-03-29T07:48:53.431Z,-0.80
2023-03-29T07:52:00.400Z,-0.71
2023-03-29T07:55:13.046Z,-0.58
2023-03-29T07:58:32.766Z,-0.47
2023-03-29T08:01:41.273Z,-0.46
2023-03-29T08:05:07.174Z,-0.37
2023-03-29T08:08:28.460Z,-0.33
2023-03-29T08:11:41.819Z,-0.23
2023-03-29T08:14:57.344Z,-0.16
2023-03-29T08:18:08.821Z,-0.10
2023-03-29T08:21:16.649Z,-0.13
2023-03-29T08:24:25.940Z,-0.10
2023-03-29T08:27:40.559Z,0.00
2023-03-29T08:30:50.389Z,-0.02
2023-03-29T08:33:57.368Z,0.09
2023-03-29T08:37:50.343Z,0.06
2023-03-29T08:40:57.381Z,-0.07
2023-03-29T08:44:29.582Z,0.05
2023-03-29T08:47:57.841Z,0.01
2023-03-29T08:51:15.783Z,0.14
2023-03-29T08:54:29.228Z,0.34
2023-03-29T08:58:41.785Z,0.49
2023-03-29T09:01:58.141Z,0.72
2023-03-29T09:05:21.604Z,0.78
2023-03-29T09:08:55.624Z,0.67
2023-03-29T09:12:23.680Z,0.63
2023-03-29T09:15:46.946Z,0.78
2023-03-29T09:19:29.206Z,0.84
2023-03-29T09:22:54.525Z,0.84
2023-03-29T09:26:13.901Z,0.91
2023-03-29T09:30:08.300Z,1.03
2023-03-29T09:33:33.271Z,1.19
2023-03-29T09:37:15.057Z,1.30
2023-03-29T09:40:34.532Z,1.47
2023-03-29T09:43:51.008Z,1.52
2023-03-29T09:47:10.892Z,1.57
2023-03-29T09:50:31.505Z,1.53
2023-03-29T09:53:43.861Z,1.69
2023-03-29T09:57:00.660Z,1.78
2023-03-29T10:00:11.063Z,1.79
2023-03-29T10:03:26.135Z,1.82
2023-03-29T10:06:50.724Z,1.79
2023-03-29T10:10:01.384Z,1.83
2023-03-29T10:13:16.970Z,1.82
2023-03-29T10:16:27.254Z,1.87
2023-03-29T10:19:36.568Z,1.93
2023-03-29T10:22:51.683Z,1.77
2023-03-29T10:26:00.913Z,1.81
2023-03-29T10:29:11.231Z,1.89
2023-03-29T10:32:37.087Z,2.10
2023-03-29T10:35:45.446Z,2.27
2023-03-29T10:38:52.872Z,2.42
2023-03-29T10:42:05.501Z,2.22
2023-03-29T10:45:27.511Z,2.42
2023-03-29T10:48:38.036Z,2.50
2023-03-29T10:51:49.634Z,2.43
2023-03-29T10:55:00.829Z,2.45
2023-03-29T10:58:34.834Z,2.59
2023-03-29T11:02:08.537Z,2.62
2023-03-29T11:05:37.192Z,2.68
2023-03-29T11:09:01.886Z,2.68
2023-03-29T11:12:22.334Z,2.72
2023-03-29T11:15:56.798Z,2.91
2023-03-29T11:20:05.371Z,3.06
2023-03-29T11:23:38.035Z,3.23
2023-03-29T11:27:04.368Z,3.21
2023-03-29T11:30:24.238Z,3.30
2023-03-29T11:33:55.110Z,3.40
2023-03-29T11:37:19.625Z,3.47
2023-03-29T11:40:45.074Z,3.59
2023-03-29T11:44:02.611Z,3.69
2023-03-29T11:47:20.389Z,3.89
2023-03-29T11:50:39.983Z,3.98
2023-03-29T11:54:02.624Z,4.01
2023-03-29T11:57:22.188Z,4.14
2023-03-29T12:00:39.174Z,4.37
2023-03-29T12:03:56.630Z,4.51
2023-03-29T12:07:21.100Z,4.62
2023-03-29T12:10:37.193Z,4.61
2023-03-29T12:13:52.995Z,4.68
2023-03-29T12:17:08.838Z,4.68
2023-03-29T12:20:27.210Z,4.59
2023-03-29T12:23:39.785Z,4.79
2023-03-29T12:27:23.088Z,4.94
2023-03-29T12:30:59.242Z,5.08
2023-03-29T12:34:27.614Z,5.33
2023-03-29T12:37:55.197Z,5.43
2023-03-29T12:41:26.768Z,5.52
2023-03-29T12:44:37.285Z,5.57
2023-03-29T12:48:06.850Z,5.64
2023-03-29T12:51:20.002Z,5.78
2023-03-29T12:54:31.586Z,5.02
2023-03-29T12:57:59.642Z,6.08
2023-03-29T13:01:13.460Z,5.55
2023-03-29T13:04:24.182Z,6.23
2023-03-29T13:07:48.700Z,6.39
2023-03-29T13:10:59.071Z,6.38
2023-03-29T13:14:22.778Z,6.44
2023-03-29T13:17:45.188Z,6.50
2023-03-29T13:21:09.546Z,6.61
2023-03-29T13:24:45.322Z,6.85
2023-03-29T13:28:07.810Z,7.10
2023-03-29T13:31:39.438Z,7.24
2023-03-29T13:34:59.900Z,7.17
2023-03-29T13:38:26.577Z,7.02
2023-03-29T13:41:50.618Z,7.13
2023-03-29T13:45:17.255Z,7.06
2023-03-29T13:48:32.234Z,7.06
2023-03-29T13:51:45.680Z,7.11
2023-03-29T13:55:01.509Z,7.19
2023-03-29T13:58:18.363Z,7.23
2023-03-29T14:01:33.221Z,7.41
2023-03-29T14:04:53.768Z,7.46
2023-03-29T14:08:07.408Z,7.52
2023-03-29T14:11:26.966Z,7.60
2023-03-29T14:14:40.506Z,7.60
2023-03-29T14:18:01.805Z,7.62
2023-03-29T14:21:14.423Z,7.29
2023-03-29T14:24:26.300Z,7.60
2023-03-29T14:27:35.040Z,7.44
2023-03-29T14:30:41.667Z,7.64
2023-03-29T14:33:47.540Z,7.69
2023-03-29T14:36:57.287Z,7.72
2023-03-29T14:40:07.946Z,7.48
2023-03-29T14:43:24.866Z,7.21
2023-03-29T14:46:31.868Z,7.15
2023-03-29T14:49:39.719Z,7.17
2023-03-29T14:52:52.378Z,7.16
2023-03-29T14:56:00.562Z,7.20
2023-03-29T14:59:24.612Z,7.13
2023-03-29T15:02:35.000Z,7.18
2023-03-29T15:05:44.592Z,7.12
2023-03-29T15:09:04.997Z,6.98
2023-03-29T15:12:19.868Z,7.03
2023-03-29T15:15:28.893Z,7.05
2023-03-29T15:18:42.233Z,6.96
2023-03-29T15:21:52.907Z,7.00
2023-03-29T15:25:02.531Z,7.00
2023-03-29T15:28:09.576Z,7.08
2023-03-29T15:31:19.805Z,7.04
2023-03-29T15:34:31.986Z,7.07
2023-03-29T15:37:38.583Z,7.10
2023-03-29T15:40:48.400Z,7.06
2023-03-29T15:43:54.870Z,6.99
2023-03-29T15:47:01.869Z,7.06
2023-03-29T15:50:09.059Z,7.09
2023-03-29T15:53:17.277Z,7.11
2023-03-29T15:56:27.048Z,6.99
2023-03-29T15:59:36.761Z,6.94
2023-03-29T16:02:42.776Z,6.96
2023-03-29T16:05:50.200Z,6.97
2023-03-29T16:08:57.429Z,6.98
2023-03-29T16:12:07.234Z,6.99
2023-03-29T16:15:24.109Z,6.96
2023-03-29T16:18:30.779Z,6.93
2023-03-29T16:21:37.077Z,6.92
2023-03-29T16:24:43.940Z,6.79
2023-03-29T16:27:53.164Z,6.68
2023-03-29T16:30:59.754Z,6.65
2023-03-29T16:34:05.708Z,6.59
2023-03-29T16:37:13.187Z,6.50
2023-03-29T16:40:19.128Z,6.41
2023-03-29T16:43:28.559Z,6.37
2023-03-29T16:46:35.206Z,6.23
2023-03-29T16:49:45.040Z,6.16
2023-03-29T16:52:52.907Z,6.27
2023-03-29T16:56:00.057Z,6.19
2023-03-29T16:59:09.720Z,6.20
2023-03-29T17:02:16.554Z,6.05
2023-03-29T17:05:22.837Z,5.96
2023-03-29T17:08:29.457Z,5.83
2023-03-29T17:11:36.210Z,5.71
2023-03-29T17:14:45.952Z,5.66
2023-03-29T17:17:51.696Z,5.62
2023-03-29T17:21:02.001Z,5.58
2023-03-29T17:24:08.226Z,5.47
2023-03-29T17:27:14.889Z,5.35
2023-03-29T17:30:23.835Z,5.30
2023-03-29T17:33:31.985Z,5.28
2023-03-29T17:36:37.851Z,5.21
2023-03-29T17:39:46.718Z,5.16
2023-03-29T17:42:52.954Z,5.10
2023-03-29T17:46:02.895Z,4.96
2023-03-29T17:49:09.602Z,4.85
2023-03-29T17:52:16.244Z,4.83
2023-03-29T17:55:22.681Z,4.73
2023-03-29T17:58:29.317Z,4.73
2023-03-29T18:01:39.203Z,3.44
2023-03-29T18:04:46.530Z,4.59
2023-03-29T18:07:52.365Z,4.58
2023-03-29T18:10:59.286Z,4.50
2023-03-29T18:14:05.646Z,4.53
2023-03-29T18:17:15.108Z,4.37
2023-03-29T18:20:21.911Z,4.49
2023-03-29T18:23:28.972Z,4.53
2023-03-29T18:26:34.825Z,4.53
2023-03-29T18:29:41.639Z,4.57
2023-03-29T18:32:50.388Z,4.58
2023-03-29T18:35:57.391Z,4.58
2023-03-29T18:39:06.028Z,4.55
2023-03-29T18:42:13.644Z,4.50
2023-03-29T18:45:19.917Z,4.42
2023-03-29T18:48:31.483Z,4.39
2023-03-29T18:51:38.756Z,4.40
2023-03-29T18:54:45.595Z,4.33
2023-03-29T18:57:51.746Z,4.36
2023-03-29T19:01:04.002Z,4.33
2023-03-29T19:04:13.783Z,4.32
2023-03-29T19:07:22.352Z,4.29
2023-03-29T19:10:29.231Z,4.26
2023-03-29T19:13:36.702Z,4.20
2023-03-29T19:16:43.994Z,4.22
2023-03-29T19:19:54.496Z,4.16
2023-03-29T19:23:02.056Z,4.04
2023-03-29T19:26:11.044Z,4.04
2023-03-29T19:29:17.214Z,3.97
2023-03-29T19:32:24.276Z,3.92
2023-03-29T19:35:33.750Z,3.84
2023-03-29T19:38:40.963Z,3.90
2023-03-29T19:41:48.150Z,3.84
2023-03-29T19:44:55.100Z,3.81
2023-03-29T19:48:03.749Z,3.80
2023-03-29T19:51:13.941Z,3.71
2023-03-29T19:54:20.744Z,3.75
2023-03-29T19:57:28.673Z,3.73
2023-03-29T20:00:35.274Z,3.65
2023-03-29T20:03:43.839Z,3.68
2023-03-29T20:06:53.623Z,3.62
2023-03-29T20:10:04.112Z,3.58
2023-03-29T20:13:10.277Z,3.56
2023-03-29T20:16:24.651Z,3.50
2023-03-29T20:19:30.681Z,3.47
2023-03-29T20:22:42.500Z,3.45
2023-03-29T20:25:48.265Z,3.41
2023-03-29T20:28:55.601Z,3.41
2023-03-29T20:32:01.674Z,3.42
2023-03-29T20:35:11.309Z,3.40
2023-03-29T20:38:20.242Z,3.40
2023-03-29T20:41:27.262Z,3.43
2023-03-29T20:44:35.299Z,3.43
2023-03-29T20:47:42.759Z,3.37
2023-03-29T20:50:50.346Z,3.40
2023-03-29T20:54:02.890Z,3.36
2023-03-29T20:57:09.976Z,3.31
2023-03-29T21:00:20.012Z,3.30
2023-03-29T21:03:25.846Z,3.27
2023-03-29T21:06:33.835Z,3.37
2023-03-29T21:09:43.961Z,3.38
2023-03-29T21:12:51.785Z,3.35
2023-03-29T21:15:58.255Z,3.39
2023-03-29T21:19:05.600Z,3.45
2023-03-29T21:22:14.058Z,3.36
2023-03-29T21:25:24.133Z,3.38
2023-03-29T21:28:30.427Z,3.34
2023-03-29T21:31:45.542Z,3.44
2023-03-29T21:34:53.285Z,3.48
2023-03-29T21:38:01.469Z,3.41
2023-03-29T21:41:17.007Z,3.42
2023-03-29T21:44:24.318Z,3.52
2023-03-29T21:47:30.836Z,3.60
2023-03-29T21:50:38.658Z,3.62
2023-03-29T21:53:45.043Z,3.59
2023-03-29T21:56:55.327Z,3.63
2023-03-29T22:00:01.727Z,3.55
2023-03-29T22:03:09.218Z,3.62
2023-03-29T22:06:18.470Z,3.62
2023-03-29T22:09:26.428Z,3.58
2023-03-29T22:12:37.542Z,3.70
2023-03-29T22:15:45.312Z,3.62
2023-03-29T22:18:53.001Z,3.71
2023-03-29T22:22:01.760Z,3.65
2023-03-29T22:25:09.866Z,3.68
2023-03-29T22:28:20.081Z,3.73
2023-03-29T22:31:29.377Z,3.72
2023-03-29T22:34:37.097Z,3.71
2023-03-29T22:37:47.710Z,3.72
2023-03-29T22:40:54.973Z,3.75
2023-03-29T22:44:04.329Z,3.76
2023-03-29T22:47:11.916Z,3.81
2023-03-29T22:50:18.226Z,3.85
2023-03-29T22:53:25.390Z,3.90
2023-03-29T22:56:31.659Z,3.87
2023-03-29T22:59:41.563Z,3.89
2023-03-29T23:02:47.917Z,3.94
2023-03-29T23:05:56.259Z,3.86
2023-03-29T23:09:02.717Z,3.85
2023-03-29T23:12:10.584Z,3.84
2023-03-29T23:15:23.029Z,3.89
2023-03-29T23:18:32.436Z,3.88
2023-03-29T23:21:39.393Z,3.87
2023-03-29T23:24:47.670Z,3.92
2023-03-29T23:27:54.197Z,3.97
2023-03-29T23:31:10.383Z,4.02
2023-03-29T23:34:16.928Z,4.06
2023-03-29T23:37:25.305Z,4.11
2023-03-29T23:40:33.345Z,4.17
2023-03-29T23:43:44.307Z,4.19
2023-03-29T23:46:53.334Z,4.20
2023-03-29T23:50:02.406Z,4.14
2023-03-29T23:53:09.883Z,4.19
2023-03-29T23:56:17.166Z,4.21
2023-03-29T23:59:27.304Z,4.22
